createdAt,value
2018-09-15T00:00:03.544Z,13.60
2018-09-15T00:02:37.881Z,13.60
2018-09-15T00:05:12.372Z,13.70
2018-09-15T00:07:48.028Z,13.70
2018-09-15T00:10:22.544Z,13.70
2018-09-15T00:12:56.947Z,13.70
2018-09-15T00:15:31.421Z,13.70
2018-09-15T00:18:08.870Z,13.80
2018-09-15T00:20:43.230Z,13.70
2018-09-15T00:23:17.658Z,13.70
2018-09-15T00:25:52.044Z,13.70
2018-09-15T00:28:26.418Z,13.60
2018-09-15T00:31:00.893Z,13.60
2018-09-15T00:33:35.278Z,13.60
2018-09-15T00:36:10.595Z,13.60
2018-09-15T00:38:45.720Z,13.50
2018-09-15T00:41:20.106Z,13.40
2018-09-15T00:43:54.568Z,13.40
2018-09-15T00:46:28.832Z,13.30
2018-09-15T00:49:04.089Z,13.10
2018-09-15T00:51:39.013Z,13.10
2018-09-15T00:54:13.346Z,13.10
2018-09-15T00:56:47.748Z,13.00
2018-09-15T00:59:22.677Z,13.00
2018-09-15T01:01:58.229Z,12.90
2018-09-15T01:04:32.936Z,12.90
2018-09-15T01:07:07.424Z,12.90
2018-09-15T01:09:42.501Z,12.90
2018-09-15T01:12:16.849Z,12.80
2018-09-15T01:14:51.554Z,12.70
2018-09-15T01:17:26.349Z,12.70
2018-09-15T01:20:00.818Z,12.70
2018-09-15T01:22:35.032Z,12.60
2018-09-15T01:25:09.497Z,12.60
2018-09-15T01:27:43.781Z,12.60
2018-09-15T01:30:18.059Z,12.40
2018-09-15T01:32:52.514Z,12.40
2018-09-15T01:35:26.804Z,12.30
2018-09-15T01:38:01.090Z,12.20
2018-09-15T01:40:35.463Z,12.20
2018-09-15T01:43:09.938Z,12.20
2018-09-15T01:45:45.281Z,12.30
2018-09-15T01:48:20.136Z,12.40
2018-09-15T01:50:54.825Z,12.50
2018-09-15T01:53:29.178Z,12.50
2018-09-15T01:56:03.483Z,12.50
2018-09-15T01:58:37.874Z,12.60
2018-09-15T02:01:14.879Z,12.70
2018-09-15T02:03:52.277Z,12.80
2018-09-15T02:06:27.551Z,12.90
2018-09-15T02:09:02.145Z,13.00
2018-09-15T02:11:36.726Z,13.10
2018-09-15T02:14:10.989Z,13.20
2018-09-15T02:16:45.919Z,13.20
2018-09-15T02:19:20.272Z,13.20
2018-09-15T02:21:54.760Z,13.30
2018-09-15T02:24:29.145Z,13.20
2018-09-15T02:27:03.360Z,13.30
2018-09-15T02:29:37.791Z,13.30
2018-09-15T02:32:12.037Z,13.30
2018-09-15T02:34:47.897Z,13.30
2018-09-15T02:37:22.104Z,13.30
2018-09-15T02:39:56.446Z,13.30
2018-09-15T02:42:30.846Z,13.20
2018-09-15T02:45:05.225Z,13.10
2018-09-15T02:47:39.621Z,13.10
2018-09-15T02:50:13.798Z,12.90
2018-09-15T02:52:48.373Z,13.10
2018-09-15T02:55:22.944Z,13.00
2018-09-15T02:57:57.270Z,12.90
2018-09-15T03:00:31.692Z,12.90
2018-09-15T03:03:06.306Z,12.80
2018-09-15T03:05:40.540Z,12.70
2018-09-15T03:08:14.957Z,12.60
2018-09-15T03:10:49.522Z,12.50
2018-09-15T03:13:24.167Z,12.50
2018-09-15T03:15:58.530Z,12.40
2018-09-15T03:18:34.120Z,12.40
2018-09-15T03:21:08.980Z,12.40
2018-09-15T03:23:43.384Z,12.40
2018-09-15T03:26:17.686Z,12.30
2018-09-15T03:28:52.177Z,12.30
2018-09-15T03:31:26.639Z,12.20
2018-09-15T03:34:01.076Z,12.20
2018-09-15T03:36:35.292Z,12.20
2018-09-15T03:39:11.105Z,12.20
2018-09-15T03:41:45.435Z,12.10
2018-09-15T03:44:20.704Z,12.10
2018-09-15T03:46:55.110Z,12.10
2018-09-15T03:49:29.496Z,12.00
2018-09-15T03:52:03.856Z,12.00
2018-09-15T03:54:38.080Z,12.00
2018-09-15T03:57:13.429Z,11.90
2018-09-15T03:59:47.749Z,11.80
2018-09-15T04:02:23.121Z,11.80
2018-09-15T04:04:57.801Z,11.80
2018-09-15T04:07:32.224Z,11.70
2018-09-15T04:10:07.466Z,11.70
2018-09-15T04:12:42.722Z,11.60
2018-09-15T04:15:16.932Z,11.60
2018-09-15T04:17:52.081Z,11.40
2018-09-15T04:20:33.205Z,11.50
2018-09-15T04:23:07.746Z,11.50
2018-09-15T04:25:42.594Z,11.50
2018-09-15T04:28:17.474Z,11.50
2018-09-15T04:30:51.840Z,11.60
2018-09-15T04:33:26.209Z,11.60
2018-09-15T04:36:00.657Z,11.60
2018-09-15T04:38:35.062Z,11.60
2018-09-15T04:41:09.416Z,11.50
2018-09-15T04:43:44.917Z,11.50
2018-09-15T04:46:19.201Z,11.50
2018-09-15T04:48:53.510Z,11.50
2018-09-15T04:51:27.943Z,11.50
2018-09-15T04:54:02.399Z,11.40
2018-09-15T04:56:36.752Z,11.40
2018-09-15T04:59:11.579Z,11.30
2018-09-15T05:01:46.258Z,11.30
2018-09-15T05:04:20.576Z,11.30
2018-09-15T05:06:54.939Z,11.30
2018-09-15T05:09:29.129Z,11.40
2018-09-15T05:12:03.581Z,11.40
2018-09-15T05:14:37.980Z,11.40
2018-09-15T05:17:12.269Z,11.50
2018-09-15T05:19:46.480Z,11.50
2018-09-15T05:22:20.721Z,11.60
2018-09-15T05:24:54.945Z,11.60
2018-09-15T05:27:29.126Z,11.60
2018-09-15T05:30:03.647Z,11.70
2018-09-15T05:32:37.927Z,11.70
2018-09-15T05:35:12.280Z,11.80
2018-09-15T05:37:46.844Z,11.80
2018-09-15T05:40:21.270Z,11.90
2018-09-15T05:42:55.539Z,11.90
2018-09-15T05:45:31.692Z,11.90
2018-09-15T05:48:06.068Z,11.90
2018-09-15T05:50:40.468Z,12.10
2018-09-15T05:53:14.801Z,12.10
2018-09-15T05:55:49.121Z,12.20
2018-09-15T05:58:23.503Z,12.30
2018-09-15T06:00:57.942Z,12.30
2018-09-15T06:03:32.297Z,12.30
2018-09-15T06:06:06.631Z,12.30
2018-09-15T06:08:40.990Z,12.40
2018-09-15T06:11:15.302Z,12.40
2018-09-15T06:13:49.753Z,12.50
2018-09-15T06:16:24.133Z,12.60
2018-09-15T06:18:59.606Z,12.60
2018-09-15T06:21:33.832Z,12.80
2018-09-15T06:24:08.429Z,12.80
2018-09-15T06:26:42.853Z,12.90
2018-09-15T06:29:17.083Z,13.00
2018-09-15T06:31:51.413Z,13.10
2018-09-15T06:34:26.592Z,13.20
2018-09-15T06:37:01.056Z,13.30
2018-09-15T06:39:35.800Z,13.40
2018-09-15T06:42:10.607Z,13.50
2018-09-15T06:44:45.078Z,13.60
2018-09-15T06:47:19.752Z,13.70
2018-09-15T06:49:55.199Z,13.80
2018-09-15T06:52:30.175Z,13.90
2018-09-15T06:55:04.786Z,14.00
2018-09-15T06:57:39.226Z,14.20
2018-09-15T07:00:14.174Z,14.30
2018-09-15T07:02:48.852Z,14.50
2018-09-15T07:05:23.145Z,14.70
2018-09-15T07:09:02.127Z,14.70
2018-09-15T07:11:36.793Z,14.60
2018-09-15T07:14:11.567Z,14.70
2018-09-15T07:16:46.981Z,14.90
2018-09-15T07:19:22.001Z,15.10
2018-09-15T07:21:59.005Z,15.40
2018-09-15T07:24:34.985Z,15.50
2018-09-15T07:27:11.774Z,15.60
2018-09-15T07:29:46.363Z,15.60
2018-09-15T07:32:23.340Z,15.70
2018-09-15T07:34:58.797Z,15.80
2018-09-15T07:37:33.144Z,15.80
2018-09-15T07:40:07.534Z,15.80
2018-09-15T07:42:42.667Z,15.80
2018-09-15T07:45:16.997Z,15.70
2018-09-15T07:47:53.382Z,15.60
2018-09-15T07:50:28.006Z,15.40
2018-09-15T07:53:03.079Z,15.40
2018-09-15T07:55:37.908Z,15.40
2018-09-15T07:58:12.975Z,15.40
2018-09-15T08:00:47.993Z,15.40
2018-09-15T08:06:05.538Z,15.40
2018-09-15T08:08:41.014Z,15.50
2018-09-15T08:11:16.243Z,15.70
2018-09-15T08:13:52.200Z,15.80
2018-09-15T08:16:28.254Z,15.90
2018-09-15T08:19:03.111Z,16.10
2018-09-15T08:21:38.637Z,16.20
2018-09-15T08:24:16.144Z,16.20
2018-09-15T08:26:51.406Z,16.30
2018-09-15T08:29:26.253Z,16.60
2018-09-15T08:32:02.002Z,16.90
2018-09-15T08:34:36.460Z,17.40
2018-09-15T08:37:11.307Z,17.50
2018-09-15T08:39:45.781Z,17.50
2018-09-15T08:42:20.181Z,17.60
2018-09-15T08:44:54.804Z,17.80
2018-09-15T08:47:29.276Z,18.10
2018-09-15T08:50:03.957Z,17.90
2018-09-15T08:52:38.166Z,17.90
2018-09-15T08:55:14.084Z,17.80
2018-09-15T08:57:48.492Z,17.70
2018-09-15T09:00:23.864Z,17.60
2018-09-15T09:02:58.102Z,17.50
2018-09-15T09:05:32.948Z,17.60
2018-09-15T09:08:07.428Z,17.60
2018-09-15T09:10:42.552Z,17.80
2018-09-15T09:13:17.030Z,18.00
2018-09-15T09:15:51.561Z,18.40
2018-09-15T09:18:25.852Z,18.50
2018-09-15T09:21:00.323Z,18.30
2018-09-15T09:23:35.313Z,18.40
2018-09-15T09:26:09.952Z,18.50
2018-09-15T09:28:44.403Z,18.60
2018-09-15T09:31:19.525Z,19.00
2018-09-15T09:33:53.965Z,19.20
2018-09-15T09:36:28.852Z,19.00
2018-09-15T09:39:05.024Z,18.80
2018-09-15T09:41:39.428Z,18.90
2018-09-15T09:44:14.146Z,18.80
2018-09-15T09:46:48.486Z,18.80
2018-09-15T09:49:23.468Z,18.70
2018-09-15T09:51:57.641Z,18.60
2018-09-15T09:54:31.857Z,18.30
2018-09-15T09:57:06.277Z,18.10
2018-09-15T09:59:40.606Z,18.00
2018-09-15T10:02:19.852Z,18.00
2018-09-15T10:04:54.501Z,18.10
2018-09-15T10:07:28.885Z,18.20
2018-09-15T10:10:03.194Z,18.40
2018-09-15T10:12:37.663Z,18.60
2018-09-15T10:15:12.133Z,18.80
2018-09-15T10:17:46.577Z,18.80
2018-09-15T10:20:21.097Z,18.90
2018-09-15T10:22:55.618Z,19.10
2018-09-15T10:25:30.036Z,19.60
2018-09-15T10:28:04.743Z,19.80
2018-09-15T10:30:39.492Z,20.00
2018-09-15T10:33:15.807Z,19.80
2018-09-15T10:35:50.272Z,19.40
2018-09-15T10:38:25.334Z,19.10
2018-09-15T10:41:00.538Z,18.80
2018-09-15T10:43:34.996Z,18.70
2018-09-15T10:46:10.910Z,18.60
2018-09-15T10:48:45.318Z,18.00
2018-09-15T10:51:19.756Z,17.60
2018-09-15T10:53:54.848Z,17.10
2018-09-15T10:56:30.464Z,16.90
2018-09-15T10:59:06.709Z,16.80
2018-09-15T11:01:41.380Z,16.80
2018-09-15T11:04:15.562Z,16.70
2018-09-15T11:06:49.879Z,16.70
2018-09-15T11:09:24.181Z,17.00
2018-09-15T11:12:00.341Z,17.30
2018-09-15T11:14:34.892Z,17.60
2018-09-15T11:17:09.202Z,17.80
2018-09-15T11:19:43.484Z,18.00
2018-09-15T11:22:17.814Z,18.10
2018-09-15T11:24:52.231Z,18.20
2018-09-15T11:27:27.773Z,18.40
2018-09-15T11:30:02.249Z,18.50
2018-09-15T11:32:36.578Z,18.70
2018-09-15T11:35:10.923Z,19.10
2018-09-15T11:37:45.157Z,19.40
2018-09-15T11:40:19.602Z,19.40
2018-09-15T11:42:54.048Z,19.50
2018-09-15T11:45:28.342Z,19.40
2018-09-15T11:48:04.004Z,19.60
2018-09-15T11:50:38.222Z,19.40
2018-09-15T11:53:13.163Z,19.50
2018-09-15T11:55:47.436Z,19.80
2018-09-15T11:58:21.657Z,20.00
2018-09-15T12:00:58.407Z,20.30
2018-09-15T12:03:32.904Z,20.20
2018-09-15T12:06:07.167Z,20.40
2018-09-15T12:08:42.292Z,20.30
2018-09-15T12:11:17.654Z,20.20
2018-09-15T12:13:51.960Z,19.90
2018-09-15T12:16:26.952Z,19.70
2018-09-15T12:19:01.272Z,19.50
2018-09-15T12:21:35.661Z,19.40
2018-09-15T12:24:10.380Z,19.20
2018-09-15T12:26:45.448Z,19.00
2018-09-15T12:29:19.679Z,19.10
2018-09-15T12:31:53.872Z,19.20
2018-09-15T12:34:28.707Z,19.30
2018-09-15T12:37:03.176Z,19.30
2018-09-15T12:39:37.395Z,19.50
2018-09-15T12:42:11.821Z,19.40
2018-09-15T12:44:46.204Z,19.20
2018-09-15T12:47:20.483Z,18.90
2018-09-15T12:49:55.268Z,18.90
2018-09-15T12:52:29.601Z,18.90
2018-09-15T12:55:04.225Z,19.00
2018-09-15T12:57:38.570Z,19.10
2018-09-15T13:00:12.801Z,19.30
2018-09-15T13:02:47.743Z,19.50
2018-09-15T13:05:22.665Z,19.30
2018-09-15T13:07:57.081Z,19.10
2018-09-15T13:10:31.801Z,19.10
2018-09-15T13:13:06.113Z,19.10
2018-09-15T13:15:40.576Z,19.20
2018-09-15T13:18:15.057Z,19.30
2018-09-15T13:20:50.906Z,19.30
2018-09-15T13:23:25.264Z,19.20
2018-09-15T13:25:59.454Z,19.30
2018-09-15T13:28:34.229Z,19.60
2018-09-15T13:31:08.558Z,19.80
2018-09-15T13:33:43.478Z,20.20
2018-09-15T13:36:22.003Z,20.20
2018-09-15T13:38:57.874Z,20.60
2018-09-15T13:41:32.415Z,21.20
2018-09-15T13:44:07.219Z,21.80
2018-09-15T13:46:41.805Z,22.90
2018-09-15T13:49:16.151Z,24.40
2018-09-15T13:51:53.800Z,25.90
2018-09-15T13:54:29.701Z,26.40
2018-09-15T13:57:04.404Z,26.30
2018-09-15T13:59:40.271Z,27.50
2018-09-15T14:02:14.753Z,27.40
2018-09-15T14:04:49.282Z,23.90
2018-09-15T14:07:23.580Z,21.80
2018-09-15T14:09:58.276Z,20.90
2018-09-15T14:12:33.972Z,20.50
2018-09-15T14:15:08.318Z,20.10
2018-09-15T14:17:42.707Z,19.80
2018-09-15T14:20:17.796Z,19.70
2018-09-15T14:22:52.355Z,19.50
2018-09-15T14:25:26.644Z,19.40
2018-09-15T14:28:01.373Z,19.30
2018-09-15T14:30:36.369Z,19.30
2018-09-15T14:33:11.079Z,19.40
2018-09-15T14:35:45.569Z,19.40
2018-09-15T14:38:20.361Z,19.60
2018-09-15T14:41:00.438Z,19.60
2018-09-15T14:43:34.623Z,19.60
2018-09-15T14:46:08.942Z,19.50
2018-09-15T14:48:43.316Z,19.50
2018-09-15T14:51:17.821Z,19.40
2018-09-15T14:53:52.297Z,19.40
2018-09-15T14:56:26.866Z,19.50
2018-09-15T14:59:01.328Z,19.70
2018-09-15T15:01:35.841Z,19.80
2018-09-15T15:04:10.408Z,19.90
2018-09-15T15:06:46.187Z,20.40
2018-09-15T15:09:20.633Z,21.10
2018-09-15T15:11:55.137Z,21.80
2018-09-15T15:14:29.419Z,21.40
2018-09-15T15:17:05.254Z,22.90
2018-09-15T15:19:40.410Z,22.70
2018-09-15T15:22:19.323Z,22.40
2018-09-15T15:24:53.704Z,22.40
2018-09-15T15:27:28.205Z,22.70
2018-09-15T15:30:02.684Z,22.30
2018-09-15T15:32:37.329Z,21.00
2018-09-15T15:35:13.061Z,20.70
2018-09-15T15:37:47.544Z,20.60
2018-09-15T15:40:22.203Z,22.30
2018-09-15T15:42:56.733Z,23.70
2018-09-15T15:45:31.094Z,25.90
2018-09-15T15:48:05.446Z,25.40
2018-09-15T15:50:39.724Z,22.50
2018-09-15T15:53:13.961Z,21.10
2018-09-15T15:55:48.633Z,20.50
2018-09-15T15:58:23.388Z,20.20
2018-09-15T16:00:57.689Z,19.80
2018-09-15T16:03:32.170Z,19.50
2018-09-15T16:06:07.188Z,19.40
2018-09-15T16:08:41.561Z,19.20
2018-09-15T16:11:18.593Z,19.10
2018-09-15T16:13:55.013Z,19.10
2018-09-15T16:16:29.324Z,19.00
2018-09-15T16:19:04.369Z,19.00
2018-09-15T16:21:39.054Z,19.00
2018-09-15T16:24:13.759Z,19.00
2018-09-15T16:26:48.243Z,19.00
2018-09-15T16:29:22.813Z,18.90
2018-09-15T16:31:57.288Z,18.90
2018-09-15T16:34:31.980Z,18.80
2018-09-15T16:37:06.608Z,18.80
2018-09-15T16:39:41.110Z,18.80
2018-09-15T16:42:15.542Z,18.80
2018-09-15T16:44:50.933Z,18.80
2018-09-15T16:47:28.594Z,18.80
2018-09-15T16:50:03.124Z,18.70
2018-09-15T16:52:39.330Z,18.80
2018-09-15T16:55:15.764Z,18.90
2018-09-15T16:57:54.200Z,18.90
2018-09-15T17:00:28.682Z,18.90
2018-09-15T17:03:03.224Z,18.80
2018-09-15T17:05:37.673Z,18.70
2018-09-15T17:08:12.003Z,18.70
2018-09-15T17:13:45.743Z,18.40
2018-09-15T17:16:20.272Z,18.20
2018-09-15T17:18:54.817Z,18.10
2018-09-15T17:21:29.152Z,18.00
2018-09-15T17:24:04.198Z,17.90
2018-09-15T17:26:39.745Z,17.80
2018-09-15T17:29:15.048Z,17.80
2018-09-15T17:31:50.179Z,17.70
2018-09-15T17:34:25.872Z,17.70
2018-09-15T17:37:00.330Z,17.70
2018-09-15T17:39:35.065Z,17.60
2018-09-15T17:42:10.606Z,17.60
2018-09-15T17:44:45.936Z,17.50
2018-09-15T17:47:21.814Z,17.50
2018-09-15T17:49:56.320Z,17.40
2018-09-15T17:52:31.679Z,17.40
2018-09-15T17:55:08.092Z,17.30
2018-09-15T17:57:42.498Z,17.30
2018-09-15T18:00:16.900Z,17.20
2018-09-15T18:02:52.212Z,17.20
2018-09-15T18:05:26.506Z,17.10
2018-09-15T18:08:00.810Z,17.00
2018-09-15T18:10:35.136Z,17.00
2018-09-15T18:13:09.599Z,16.90
2018-09-15T18:15:43.959Z,16.80
2018-09-15T18:18:18.188Z,16.80
2018-09-15T18:20:53.007Z,16.70
2018-09-15T18:23:27.349Z,16.70
2018-09-15T18:26:03.087Z,16.60
2018-09-15T18:28:37.449Z,16.50
2018-09-15T18:31:16.638Z,16.40
2018-09-15T18:33:52.737Z,16.30
2018-09-15T18:36:28.066Z,16.20
2018-09-15T18:39:02.454Z,16.00
2018-09-15T18:41:37.793Z,15.90
2018-09-15T18:44:12.783Z,15.80
2018-09-15T18:46:47.355Z,15.80
2018-09-15T18:49:21.725Z,15.70
2018-09-15T18:51:58.729Z,15.70
2018-09-15T18:54:34.058Z,15.70
2018-09-15T18:57:09.063Z,15.70
2018-09-15T18:59:44.367Z,15.70
2018-09-15T19:02:23.654Z,15.70
2018-09-15T19:05:08.784Z,15.60
2018-09-15T19:07:43.358Z,15.60
2018-09-15T19:10:18.256Z,15.60
2018-09-15T19:12:52.654Z,15.60
2018-09-15T19:15:27.584Z,15.60
2018-09-15T19:18:02.855Z,15.60
2018-09-15T19:20:38.100Z,15.70
2018-09-15T19:23:13.129Z,15.70
2018-09-15T19:25:48.496Z,15.70
2018-09-15T19:28:23.908Z,15.70
2018-09-15T19:30:58.265Z,15.60
2018-09-15T19:33:33.572Z,15.60
2018-09-15T19:36:08.073Z,15.50
2018-09-15T19:38:42.344Z,15.40
2018-09-15T19:41:16.683Z,15.40
2018-09-15T19:43:51.709Z,15.40
2018-09-15T19:46:26.060Z,15.40
2018-09-15T19:49:00.584Z,15.40
2018-09-15T19:51:35.441Z,15.40
2018-09-15T19:54:09.847Z,15.30
2018-09-15T19:56:44.163Z,15.20
2018-09-15T19:59:19.425Z,15.10
2018-09-15T20:01:54.116Z,15.00
2018-09-15T20:04:28.558Z,14.90
2018-09-15T20:07:03.647Z,14.90
2018-09-15T20:09:38.128Z,14.90
2018-09-15T20:12:13.526Z,14.80
2018-09-15T20:14:47.773Z,14.70
2018-09-15T20:17:21.305Z,14.70
2018-09-15T20:19:56.215Z,14.60
2018-09-15T20:22:31.154Z,14.60
2018-09-15T20:25:05.689Z,14.50
2018-09-15T20:27:40.793Z,14.50
2018-09-15T20:30:15.071Z,14.60
2018-09-15T20:32:49.881Z,14.60
2018-09-15T20:35:24.560Z,14.50
2018-09-15T20:37:59.981Z,14.40
2018-09-15T20:40:34.348Z,14.30
2018-09-15T20:43:10.712Z,14.20
2018-09-15T20:45:45.152Z,14.10
2018-09-15T20:48:19.330Z,14.10
2018-09-15T20:50:57.518Z,14.10
2018-09-15T20:53:31.956Z,14.00
2018-09-15T20:56:06.674Z,14.00
2018-09-15T20:58:41.085Z,14.00
2018-09-15T21:01:15.373Z,14.00
2018-09-15T21:03:49.738Z,14.10
2018-09-15T21:06:25.220Z,14.10
2018-09-15T21:08:59.508Z,14.20
2018-09-15T21:11:33.915Z,14.20
2018-09-15T21:14:08.297Z,14.20
2018-09-15T21:16:42.609Z,14.10
2018-09-15T21:19:16.905Z,14.00
2018-09-15T21:21:51.136Z,13.90
2018-09-15T21:24:27.680Z,13.80
2018-09-15T21:27:02.142Z,13.80
2018-09-15T21:29:38.746Z,13.70
2018-09-15T21:32:13.108Z,13.60
2018-09-15T21:34:48.798Z,13.50
2018-09-15T21:37:23.923Z,13.50
2018-09-15T21:39:58.241Z,13.60
2018-09-15T21:42:32.559Z,13.50
2018-09-15T21:45:07.120Z,13.50
2018-09-15T21:47:41.386Z,13.40
2018-09-15T21:50:15.923Z,13.40
2018-09-15T21:52:50.531Z,13.30
2018-09-15T21:55:25.033Z,13.30
2018-09-15T21:58:00.200Z,13.20
2018-09-15T22:00:35.844Z,13.20
2018-09-15T22:03:10.140Z,13.20
2018-09-15T22:05:44.873Z,13.10
2018-09-15T22:08:19.373Z,13.10
2018-09-15T22:10:53.778Z,13.00
2018-09-15T22:13:29.184Z,13.00
2018-09-15T22:16:03.663Z,13.00
2018-09-15T22:18:40.159Z,12.90
2018-09-15T22:21:15.468Z,12.90
2018-09-15T22:23:49.780Z,12.90
2018-09-15T22:26:24.016Z,12.90
2018-09-15T22:28:59.153Z,12.90
2018-09-15T22:31:33.365Z,12.80
2018-09-15T22:34:07.761Z,12.80
2018-09-15T22:36:43.373Z,12.70
2018-09-15T22:39:17.869Z,12.70
2018-09-15T22:41:52.191Z,12.60
2018-09-15T22:44:27.353Z,12.60
2018-09-15T22:47:01.836Z,12.60
2018-09-15T22:49:36.213Z,12.60
2018-09-15T22:52:11.358Z,12.60
2018-09-15T22:54:45.712Z,12.50
2018-09-15T22:57:20.193Z,12.50
2018-09-15T22:59:54.616Z,12.50
2018-09-15T23:02:29.145Z,12.50
2018-09-15T23:05:03.617Z,12.50
2018-09-15T23:07:38.453Z,12.50
2018-09-15T23:10:12.704Z,12.50
2018-09-15T23:12:47.050Z,12.50
2018-09-15T23:15:22.708Z,12.40
2018-09-15T23:17:58.344Z,12.40
2018-09-15T23:20:34.688Z,12.40
2018-09-15T23:23:11.141Z,12.40
2018-09-15T23:25:45.628Z,12.40
2018-09-15T23:28:20.989Z,12.40
2018-09-15T23:30:58.434Z,12.30
2018-09-15T23:33:32.853Z,12.30
2018-09-15T23:36:08.240Z,12.20
2018-09-15T23:38:44.943Z,12.20
2018-09-15T23:41:20.310Z,12.10
2018-09-15T23:43:59.530Z,12.10
2018-09-15T23:46:33.960Z,12.10
2018-09-15T23:49:08.781Z,12.00
2018-09-15T23:51:43.937Z,12.00
2018-09-15T23:54:18.920Z,12.00
2018-09-15T23:56:55.955Z,12.00
2018-09-15T23:59:32.289Z,12.00
